createdAt,value
2018-07-19T00:00:07.833Z,98922.52
2018-07-19T00:02:38.637Z,98924.62
2018-07-19T00:05:09.405Z,98920.77
2018-07-19T00:07:40.277Z,98921.17
2018-07-19T00:10:10.973Z,98920.05
2018-07-19T00:12:41.673Z,98919.37
2018-07-19T00:15:12.295Z,98916.88
2018-07-19T00:17:42.989Z,98915.52
2018-07-19T00:20:13.542Z,98917.99
2018-07-19T00:22:44.756Z,98913.54
2018-07-19T00:25:15.485Z,98905.84
2018-07-19T00:27:46.100Z,98910.95
2018-07-19T00:30:16.692Z,98907.54
2018-07-19T00:32:47.593Z,98904.01
2018-07-19T00:35:18.153Z,98891.22
2018-07-19T00:37:49.065Z,98898.38
2018-07-19T00:40:19.878Z,98891.41
2018-07-19T00:42:50.634Z,98894.88
2018-07-19T00:45:21.347Z,98887.91
2018-07-19T00:47:51.964Z,98889.84
2018-07-19T00:50:22.710Z,98886.70
2018-07-19T00:52:53.609Z,98894.45
2018-07-19T00:55:24.229Z,98883.75
2018-07-19T00:57:55.177Z,98883.30
2018-07-19T01:00:25.808Z,98883.48
2018-07-19T01:02:56.674Z,98882.73
2018-07-19T01:05:27.447Z,98886.55
2018-07-19T01:07:58.333Z,98886.89
2018-07-19T01:10:28.981Z,98878.29
2018-07-19T01:12:59.913Z,98881.13
2018-07-19T01:15:30.812Z,98878.09
2018-07-19T01:18:01.473Z,98878.00
2018-07-19T01:20:32.182Z,98879.64
2018-07-19T01:23:02.789Z,98874.81
2018-07-19T01:25:33.438Z,98878.36
2018-07-19T01:28:04.197Z,98882.35
2018-07-19T01:30:34.746Z,98879.92
2018-07-19T01:33:05.634Z,98880.75
2018-07-19T01:35:36.332Z,98871.94
2018-07-19T01:38:07.232Z,98873.46
2018-07-19T01:40:37.991Z,98878.30
2018-07-19T01:43:08.847Z,98880.48
2018-07-19T01:45:39.460Z,98875.71
2018-07-19T01:48:10.229Z,98880.65
2018-07-19T01:50:41.028Z,98875.11
2018-07-19T01:53:11.661Z,98874.14
2018-07-19T01:55:42.449Z,98871.93
2018-07-19T01:58:13.197Z,98876.39
2018-07-19T02:00:43.808Z,98868.04
2018-07-19T02:03:14.897Z,98862.12
2018-07-19T02:05:45.638Z,98861.88
2018-07-19T02:08:16.376Z,98859.89
2018-07-19T02:10:48.922Z,98855.63
2018-07-19T02:13:20.105Z,98855.80
2018-07-19T02:15:50.841Z,98846.88
2018-07-19T02:18:21.749Z,98849.11
2018-07-19T02:20:52.344Z,98839.64
2018-07-19T02:23:23.017Z,98832.09
2018-07-19T02:25:53.673Z,98839.46
2018-07-19T02:28:24.376Z,98825.92
2018-07-19T02:30:55.197Z,98845.97
2018-07-19T02:33:25.962Z,98840.13
2018-07-19T02:35:56.660Z,98837.70
2018-07-19T02:38:27.420Z,98841.25
2018-07-19T02:40:58.066Z,98844.27
2018-07-19T02:43:28.960Z,98841.34
2018-07-19T02:45:59.694Z,98833.07
2018-07-19T02:48:30.425Z,98829.78
2018-07-19T02:51:01.028Z,98834.60
2018-07-19T02:53:31.779Z,98833.33
2018-07-19T02:56:02.466Z,98829.13
2018-07-19T02:58:33.533Z,98829.96
2018-07-19T03:01:04.314Z,98839.55
2018-07-19T03:03:35.113Z,98836.36
2018-07-19T03:06:05.970Z,98837.19
2018-07-19T03:08:36.745Z,98839.76
2018-07-19T03:11:07.384Z,98830.23
2018-07-19T03:13:38.265Z,98832.98
2018-07-19T03:16:08.941Z,98832.77
2018-07-19T03:18:39.732Z,98832.04
2018-07-19T03:21:10.269Z,98831.19
2018-07-19T03:23:41.034Z,98830.56
2018-07-19T03:26:11.944Z,98826.13
2018-07-19T03:28:42.760Z,98816.75
2018-07-19T03:31:13.353Z,98820.73
2018-07-19T03:33:44.184Z,98823.09
2018-07-19T03:36:14.613Z,98821.85
2018-07-19T03:38:45.419Z,98818.52
2018-07-19T03:41:16.033Z,98822.03
2018-07-19T03:43:46.937Z,98824.05
2018-07-19T03:46:17.640Z,98824.81
2018-07-19T03:48:48.385Z,98828.73
2018-07-19T03:51:19.014Z,98830.55
2018-07-19T03:53:50.061Z,98825.67
2018-07-19T03:56:20.687Z,98828.84
2018-07-19T03:58:51.645Z,98832.84
2018-07-19T04:01:22.353Z,98827.48
2018-07-19T04:03:52.942Z,98830.05
2018-07-19T04:06:23.561Z,98833.70
2018-07-19T04:08:54.440Z,98831.94
2018-07-19T04:11:25.157Z,98841.82
2018-07-19T04:13:55.886Z,98843.19
2018-07-19T04:16:26.605Z,98847.06
2018-07-19T04:18:57.190Z,98840.47
2018-07-19T04:21:27.929Z,98836.14
2018-07-19T04:23:58.806Z,98833.16
2018-07-19T04:26:29.452Z,98838.89
2018-07-19T04:29:00.444Z,98841.73
2018-07-19T04:31:30.965Z,98845.58
2018-07-19T04:34:01.794Z,98837.09
2018-07-19T04:36:32.432Z,98841.77
2018-07-19T04:39:06.782Z,98838.80
2018-07-19T04:41:37.489Z,98838.64
2018-07-19T04:44:09.185Z,98833.45
2018-07-19T04:46:39.945Z,98836.89
2018-07-19T04:49:11.025Z,98837.08
2018-07-19T04:51:41.645Z,98835.14
2018-07-19T04:54:12.320Z,98858.56
2018-07-19T04:56:42.940Z,98837.30
2018-07-19T04:59:13.720Z,98848.73
2018-07-19T05:01:44.600Z,98840.72
2018-07-19T05:04:15.453Z,98837.13
2018-07-19T05:06:46.149Z,98837.00
2018-07-19T05:09:17.797Z,98829.70
2018-07-19T05:11:48.521Z,98828.34
2018-07-19T05:14:18.856Z,98830.13
2018-07-19T05:16:49.577Z,98828.66
2018-07-19T05:19:20.197Z,98827.77
2018-07-19T05:21:50.832Z,98836.06
2018-07-19T05:24:21.661Z,98837.34
2018-07-19T05:26:52.337Z,98830.27
2018-07-19T05:29:23.153Z,98825.24
2018-07-19T05:31:53.840Z,98828.48
2018-07-19T05:34:24.790Z,98819.34
2018-07-19T05:36:55.565Z,98826.47
2018-07-19T05:39:26.316Z,98828.01
2018-07-19T05:41:57.849Z,98818.61
2018-07-19T05:44:29.069Z,98825.84
2018-07-19T05:46:59.621Z,98826.23
2018-07-19T05:49:30.178Z,98825.06
2018-07-19T05:52:00.781Z,98830.30
2018-07-19T05:54:31.154Z,98833.56
2018-07-19T05:57:01.732Z,98815.20
2018-07-19T05:59:32.473Z,98828.92
2018-07-19T06:02:03.132Z,98817.42
2018-07-19T06:04:33.864Z,98812.66
2018-07-19T06:07:04.369Z,98820.98
2018-07-19T06:09:35.160Z,98819.89
2018-07-19T06:12:05.832Z,98823.34
2018-07-19T06:14:38.625Z,98832.97
2018-07-19T06:17:09.252Z,98820.30
2018-07-19T06:19:39.961Z,98819.10
2018-07-19T06:22:10.662Z,98813.09
2018-07-19T06:24:41.501Z,98821.52
2018-07-19T06:27:12.184Z,98821.09
2018-07-19T06:29:43.601Z,98814.72
2018-07-19T06:32:14.251Z,98808.64
2018-07-19T06:34:45.086Z,98811.91
2018-07-19T06:37:15.721Z,98820.80
2018-07-19T06:39:46.524Z,98814.14
2018-07-19T06:42:16.981Z,98813.31
2018-07-19T06:44:48.025Z,98817.97
2018-07-19T06:47:18.653Z,98820.98
2018-07-19T06:49:48.959Z,98809.88
2018-07-19T06:52:19.614Z,98818.55
2018-07-19T06:54:50.229Z,98815.11
2018-07-19T06:57:20.875Z,98816.49
2018-07-19T06:59:51.770Z,98805.50
2018-07-19T07:02:22.196Z,98810.33
2018-07-19T07:04:53.409Z,98796.30
2018-07-19T07:07:23.994Z,98812.73
2018-07-19T07:09:54.793Z,98805.36
2018-07-19T07:12:25.453Z,98804.80
2018-07-19T07:14:56.515Z,98810.78
2018-07-19T07:17:27.184Z,98825.38
2018-07-19T07:19:58.041Z,98823.37
2018-07-19T07:22:28.677Z,98815.52
2018-07-19T07:24:59.545Z,98823.28
2018-07-19T07:27:30.082Z,98828.52
2018-07-19T07:30:00.852Z,98822.02
2018-07-19T07:32:31.432Z,98819.77
2018-07-19T07:35:02.330Z,98825.20
2018-07-19T07:37:33.015Z,98830.84
2018-07-19T07:40:04.093Z,98825.14
2018-07-19T07:42:34.656Z,98830.05
2018-07-19T07:45:05.662Z,98833.12
2018-07-19T07:47:36.261Z,98835.87
2018-07-19T07:50:07.167Z,98840.88
2018-07-19T07:52:37.864Z,98833.05
2018-07-19T07:55:08.774Z,98840.75
2018-07-19T07:57:39.401Z,98840.39
2018-07-19T08:00:11.073Z,98841.48
2018-07-19T08:02:41.381Z,98847.56
2018-07-19T08:05:12.501Z,98845.21
2018-07-19T08:07:43.005Z,98850.94
2018-07-19T08:10:13.517Z,98857.84
2018-07-19T08:12:43.889Z,98868.65
2018-07-19T08:15:14.506Z,98870.27
2018-07-19T08:17:44.868Z,98866.52
2018-07-19T08:20:15.593Z,98867.30
2018-07-19T08:22:45.864Z,98853.88
2018-07-19T08:25:16.276Z,98860.48
2018-07-19T08:27:47.639Z,98860.27
2018-07-19T08:30:18.165Z,98862.12
2018-07-19T08:32:48.581Z,98868.53
2018-07-19T08:35:20.519Z,98861.25
2018-07-19T08:37:50.977Z,98867.38
2018-07-19T08:40:21.485Z,98864.77
2018-07-19T08:42:52.728Z,98867.73
2018-07-19T08:45:23.178Z,98863.62
2018-07-19T08:47:53.834Z,98865.55
2018-07-19T08:50:24.318Z,98869.08
2018-07-19T08:52:54.644Z,98869.28
2018-07-19T08:55:25.016Z,98868.15
2018-07-19T08:57:55.736Z,98867.21
2018-07-19T09:00:26.226Z,98864.66
2018-07-19T09:02:56.821Z,98856.14
2018-07-19T09:05:27.473Z,98857.71
2018-07-19T09:07:59.323Z,98864.60
2018-07-19T09:10:29.803Z,98864.75
2018-07-19T09:13:01.309Z,98856.06
2018-07-19T09:15:32.687Z,98867.35
2018-07-19T09:18:03.852Z,98855.52
2018-07-19T09:20:35.188Z,98852.33
2018-07-19T09:23:05.760Z,98858.55
2018-07-19T09:25:36.080Z,98865.81
2018-07-19T09:28:08.631Z,98869.78
2018-07-19T09:30:38.936Z,98866.58
2018-07-19T09:33:09.386Z,98867.09
2018-07-19T09:35:39.765Z,98870.56
2018-07-19T09:38:10.320Z,98870.38
2018-07-19T09:40:40.790Z,98864.59
2018-07-19T09:43:11.587Z,98865.74
2018-07-19T09:45:42.327Z,98874.31
2018-07-19T09:48:14.149Z,98868.16
2018-07-19T09:50:44.552Z,98867.60
2018-07-19T09:53:15.466Z,98876.41
2018-07-19T09:55:46.248Z,98868.48
2018-07-19T09:58:17.695Z,98876.23
2018-07-19T10:01:20.633Z,98881.61
2018-07-19T10:03:52.211Z,98864.55
2018-07-19T10:06:22.789Z,98875.25
2018-07-19T10:08:53.521Z,98872.64
2018-07-19T10:11:24.236Z,98872.28
2018-07-19T10:13:55.148Z,98882.30
2018-07-19T10:16:25.515Z,98870.61
2018-07-19T10:18:56.274Z,98876.02
2018-07-19T10:21:27.010Z,98875.78
2018-07-19T10:23:57.854Z,98864.48
2018-07-19T10:26:28.322Z,98872.65
2018-07-19T10:28:59.125Z,98875.47
2018-07-19T10:31:29.912Z,98869.88
2018-07-19T10:34:00.903Z,98866.86
2018-07-19T10:36:31.554Z,98871.44
2018-07-19T10:39:02.282Z,98873.72
2018-07-19T10:41:35.937Z,98869.27
2018-07-19T10:44:06.643Z,98870.86
2018-07-19T10:46:37.342Z,98859.55
2018-07-19T10:49:08.429Z,98869.30
2018-07-19T10:51:39.197Z,98864.98
2018-07-19T10:54:09.841Z,98862.37
2018-07-19T10:56:40.502Z,98851.83
2018-07-19T10:59:10.646Z,98851.55
2018-07-19T11:01:41.282Z,98854.62
2018-07-19T11:04:12.196Z,98849.25
2018-07-19T11:06:42.777Z,98844.06
2018-07-19T11:09:13.487Z,98845.44
2018-07-19T11:11:44.386Z,98851.19
2018-07-19T11:14:14.759Z,98859.28
2018-07-19T11:16:45.025Z,98862.09
2018-07-19T11:19:15.701Z,98850.69
2018-07-19T11:21:46.017Z,98850.41
2018-07-19T11:24:16.909Z,98850.90
2018-07-19T11:26:47.401Z,98854.50
2018-07-19T11:29:17.909Z,98846.34
2018-07-19T11:31:48.214Z,98853.20
2018-07-19T11:34:19.260Z,98846.75
2018-07-19T11:36:49.789Z,98848.53
2018-07-19T11:39:20.856Z,98839.11
2018-07-19T11:41:51.452Z,98853.20
2018-07-19T11:44:21.963Z,98841.38
2018-07-19T11:46:52.774Z,98846.16
2018-07-19T11:49:23.316Z,98843.45
2018-07-19T11:51:54.061Z,98842.49
2018-07-19T11:54:25.153Z,98843.25
2018-07-19T11:56:55.955Z,98841.34
2018-07-19T11:59:26.072Z,98849.84
2018-07-19T12:01:56.349Z,98838.78
2018-07-19T12:04:26.697Z,98837.00
2018-07-19T12:06:57.117Z,98835.24
2018-07-19T12:09:27.624Z,98835.83
2018-07-19T12:11:58.353Z,98846.35
2018-07-19T12:14:28.889Z,98844.27
2018-07-19T12:16:59.785Z,98847.70
2018-07-19T12:19:30.304Z,98844.30
2018-07-19T12:22:01.084Z,98831.34
2018-07-19T12:24:31.881Z,98838.38
2018-07-19T12:27:03.590Z,98855.53
2018-07-19T12:29:34.168Z,98843.84
2018-07-19T12:32:05.085Z,98844.03
2018-07-19T12:34:35.507Z,98853.34
2018-07-19T12:37:05.971Z,98848.75
2018-07-19T12:39:36.777Z,98847.61
2018-07-19T12:42:07.641Z,98857.02
2018-07-19T12:44:39.431Z,98855.48
2018-07-19T12:47:10.996Z,98862.00
2018-07-19T12:49:41.357Z,98857.78
2018-07-19T12:52:12.183Z,98858.69
2018-07-19T12:54:43.021Z,98857.62
2018-07-19T12:57:14.017Z,98858.63
2018-07-19T12:59:44.456Z,98859.58
2018-07-19T13:02:15.880Z,98863.39
2018-07-19T13:04:46.205Z,98854.56
2018-07-19T13:07:17.297Z,98855.27
2018-07-19T13:09:48.143Z,98858.98
2018-07-19T13:12:19.103Z,98854.41
2018-07-19T13:14:50.089Z,98857.17
2018-07-19T13:17:20.837Z,98853.64
2018-07-19T13:19:51.633Z,98848.78
2018-07-19T13:22:22.579Z,98848.38
2018-07-19T13:24:53.285Z,98848.63
2018-07-19T13:27:23.658Z,98850.69
2018-07-19T13:29:53.925Z,98849.91
2018-07-19T13:32:24.256Z,98848.83
2018-07-19T13:34:54.585Z,98849.38
2018-07-19T13:37:25.432Z,98848.48
2018-07-19T13:39:56.184Z,98855.58
2018-07-19T13:42:26.789Z,98852.63
2018-07-19T13:44:57.406Z,98856.73
2018-07-19T13:47:28.073Z,98863.05
2018-07-19T13:49:58.379Z,98856.70
2018-07-19T13:52:44.940Z,98870.49
2018-07-19T13:55:15.229Z,98863.00
2018-07-19T13:57:46.050Z,98861.82
2018-07-19T14:00:16.580Z,98861.16
2018-07-19T14:02:47.485Z,98856.35
2018-07-19T14:05:17.752Z,98869.09
2018-07-19T14:07:48.675Z,98860.81
2018-07-19T14:10:19.374Z,98866.62
2018-07-19T14:12:50.303Z,98868.98
2018-07-19T14:15:21.480Z,98867.49
2018-07-19T14:17:52.396Z,98856.91
2018-07-19T14:20:23.105Z,98864.45
2018-07-19T14:22:53.821Z,98860.41
2018-07-19T14:25:24.621Z,98864.52
2018-07-19T14:27:55.264Z,98857.69
2018-07-19T14:30:25.887Z,98859.44
2018-07-19T14:32:56.817Z,98864.70
2018-07-19T14:35:28.945Z,98867.48
2018-07-19T14:37:59.721Z,98871.44
2018-07-19T14:40:30.372Z,98866.33
2018-07-19T14:43:00.652Z,98878.59
2018-07-19T14:45:31.405Z,98867.80
2018-07-19T14:48:02.297Z,98865.66
2018-07-19T14:50:32.944Z,98879.30
2018-07-19T14:53:03.753Z,98868.50
2018-07-19T14:55:34.501Z,98866.53
2018-07-19T14:58:04.860Z,98869.70
2018-07-19T15:00:35.229Z,98863.84
2018-07-19T15:03:05.793Z,98865.14
2018-07-19T15:05:36.114Z,98867.79
2018-07-19T15:08:06.612Z,98864.20
2018-07-19T15:10:36.848Z,98863.05
2018-07-19T15:13:07.178Z,98855.23
2018-07-19T15:15:37.688Z,98868.77
2018-07-19T15:18:08.840Z,98867.30
2018-07-19T15:20:39.131Z,98870.08
2018-07-19T15:23:09.664Z,98869.94
2018-07-19T15:25:40.311Z,98872.01
2018-07-19T15:28:10.891Z,98873.02
2018-07-19T15:30:41.501Z,98874.33
2018-07-19T15:33:12.172Z,98873.66
2018-07-19T15:35:42.424Z,98885.11
2018-07-19T15:38:13.061Z,98889.91
2018-07-19T15:40:43.358Z,98887.46
2018-07-19T15:43:13.781Z,98887.34
2018-07-19T15:45:44.130Z,98889.97
2018-07-19T15:48:14.873Z,98895.79
2018-07-19T15:50:45.206Z,98898.36
2018-07-19T15:53:15.914Z,98902.75
2018-07-19T15:55:46.228Z,98906.31
2018-07-19T15:58:17.317Z,98906.95
2018-07-19T16:00:47.604Z,98928.03
2018-07-19T16:03:18.308Z,98931.70
2018-07-19T16:05:48.870Z,98936.05
2018-07-19T16:08:19.568Z,98928.45
2018-07-19T16:10:50.084Z,98927.58
2018-07-19T16:13:20.801Z,98929.77
2018-07-19T16:15:51.501Z,98937.00
2018-07-19T16:18:22.293Z,98938.91
2018-07-19T16:20:52.777Z,98941.28
2018-07-19T16:23:24.073Z,98947.45
2018-07-19T16:25:54.677Z,98952.30
2018-07-19T16:28:25.478Z,98954.99
2018-07-19T16:30:56.120Z,98959.55
2018-07-19T16:33:26.921Z,98963.27
2018-07-19T16:35:57.596Z,98968.89
2018-07-19T16:38:28.037Z,98969.98
2018-07-19T16:40:58.339Z,98971.31
2018-07-19T16:43:29.308Z,98977.30
2018-07-19T16:46:00.063Z,98972.28
2018-07-19T16:48:30.846Z,98976.48
2018-07-19T16:51:01.429Z,98975.37
2018-07-19T16:53:32.184Z,98981.13
2018-07-19T16:56:02.815Z,98973.50
2018-07-19T16:58:33.648Z,98994.98
2018-07-19T17:01:04.272Z,98995.44
2018-07-19T17:03:35.037Z,99002.16
2018-07-19T17:06:05.673Z,99003.54
2018-07-19T17:08:37.444Z,99007.20
2018-07-19T17:11:08.326Z,99000.50
2018-07-19T17:13:39.249Z,99008.06
2018-07-19T17:16:10.881Z,99008.59
2018-07-19T17:18:41.985Z,99010.89
2018-07-19T17:21:12.632Z,99022.58
2018-07-19T17:23:43.389Z,99022.00
2018-07-19T17:26:14.100Z,99034.50
2018-07-19T17:28:45.350Z,99033.34
2018-07-19T17:31:15.503Z,99038.84
2018-07-19T17:33:46.277Z,99039.26
2018-07-19T17:36:16.788Z,99039.95
2018-07-19T17:38:47.827Z,99052.98
2018-07-19T17:41:18.476Z,99051.78
2018-07-19T17:43:49.707Z,99060.22
2018-07-19T17:46:21.365Z,99062.48
2018-07-19T17:48:51.897Z,99052.39
2018-07-19T17:51:23.453Z,99052.50
2018-07-19T17:53:54.252Z,99054.63
2018-07-19T17:56:24.897Z,99053.96
2018-07-19T17:58:55.936Z,99056.44
2018-07-19T18:01:26.381Z,99052.05
2018-07-19T18:03:57.105Z,99045.09
2018-07-19T18:06:27.488Z,99040.42
2018-07-19T18:08:58.101Z,99045.12
2018-07-19T18:11:28.782Z,99053.69
2018-07-19T18:13:59.489Z,99051.63
2018-07-19T18:16:30.090Z,99049.09
2018-07-19T18:19:00.748Z,99056.57
2018-07-19T18:21:31.429Z,99051.88
2018-07-19T18:24:02.229Z,99052.47
2018-07-19T18:26:32.909Z,99044.11
2018-07-19T18:29:03.802Z,99058.27
2018-07-19T18:31:34.394Z,99060.67
2018-07-19T18:34:05.479Z,99067.61
2018-07-19T18:36:36.133Z,99075.10
2018-07-19T18:39:11.896Z,99082.05
2018-07-19T18:41:42.893Z,99092.11
2018-07-19T18:44:13.897Z,99088.75
2018-07-19T18:46:44.772Z,99091.25
2018-07-19T18:49:18.017Z,99088.81
2018-07-19T18:51:48.709Z,99087.39
2018-07-19T18:54:19.309Z,99084.09
2018-07-19T18:56:50.050Z,99086.22
2018-07-19T18:59:20.897Z,99096.30
2018-07-19T19:01:51.476Z,99094.73
2018-07-19T19:04:22.299Z,99096.68
2018-07-19T19:06:52.941Z,99099.15
2018-07-19T19:09:23.690Z,99112.45
2018-07-19T19:11:54.191Z,99115.70
2018-07-19T19:14:25.028Z,99120.73
2018-07-19T19:16:55.339Z,99130.39
2018-07-19T19:19:26.496Z,99127.52
2018-07-19T19:21:56.974Z,99130.47
2018-07-19T19:24:29.297Z,99134.72
2018-07-19T19:27:00.232Z,99134.67
2018-07-19T19:29:33.772Z,99138.15
2018-07-19T19:32:06.371Z,99139.59
2018-07-19T19:34:36.929Z,99144.09
2018-07-19T19:37:07.629Z,99139.56
2018-07-19T19:39:38.650Z,99140.48
2018-07-19T19:42:09.477Z,99143.66
2018-07-19T19:44:42.829Z,99142.77
2018-07-19T19:47:13.613Z,99141.95
2018-07-19T19:49:44.834Z,99141.07
2018-07-19T19:52:16.022Z,99139.76
2018-07-19T19:54:46.692Z,99135.05
2018-07-19T19:57:17.105Z,99136.38
2018-07-19T19:59:47.549Z,99142.48
2018-07-19T20:02:18.329Z,99138.28
2018-07-19T20:04:49.982Z,99137.00
2018-07-19T20:07:20.553Z,99136.48
2018-07-19T20:09:51.185Z,99145.31
2018-07-19T20:12:21.686Z,99141.91
2018-07-19T20:14:52.685Z,99142.98
2018-07-19T20:17:23.313Z,99138.23
2018-07-19T20:19:54.183Z,99141.88
2018-07-19T20:22:24.785Z,99144.73
2018-07-19T20:24:55.925Z,99150.00
2018-07-19T20:27:25.964Z,99150.58
2018-07-19T20:29:56.668Z,99157.04
2018-07-19T20:32:27.403Z,99164.95
2018-07-19T20:34:58.232Z,99160.65
2018-07-19T20:37:28.934Z,99172.65
2018-07-19T20:39:59.753Z,99172.39
2018-07-19T20:42:30.462Z,99164.83
2018-07-19T20:45:01.525Z,99167.57
2018-07-19T20:47:32.113Z,99172.09
2018-07-19T20:50:03.158Z,99168.53
2018-07-19T20:52:33.944Z,99166.27
2018-07-19T20:55:04.818Z,99175.30
2018-07-19T20:57:35.557Z,99168.84
2018-07-19T21:00:07.320Z,99173.14
